MSC Poh Lin — H8FC — position and weather

sailwx.info

Track history (hours):
 
Tides and Currents Weather Stations Pressure Air Temp Water Temp Dewpoint Dewpoint Depression Visibility Wind Speed Wind Dir Waves Ship Positions

MSC Poh Lin

Last reported at 2016-Sep-30 17:33 UTC. Time now 2016-Sep-30 22:04 UTC.
Position N 39°58' E 001°10'.

Length 294 m; draft 11.3 m.

Type: Ship (hazmat cat A). MMSI: 357405000.

Date/timePositionNaut miles runAvg speedWind from/ knotsBaromVisibWave heightAir tempDewpointWater temp
2016-Sep-30 17:33N 39°58' E 001°10'1717.2
2016-Sep-30 16:33N 40°11' E 001°25'3417.1
2016-Sep-30 14:33N 40°36' E 001°55'1717.1
2016-Sep-30 13:33N 40°48' E 002°12'18616.3
2016-Sep-30 02:07N 43°08' E 004°56'17 6.5
2016-Sep-29 23:25N 43°25' E 004°50'0 0.0
2016-Sep-29 21:31N 43°25' E 004°50'0 0.0
2016-Sep-29 20:31N 43°25' E 004°50'0 0.0
2016-Sep-29 19:31N 43°25' E 004°50'0 0.0
2016-Sep-29 16:31N 43°25' E 004°50'0 0.0
2016-Sep-29 15:34N 43°25' E 004°50'4 3.5
2016-Sep-29 14:34N 43°24' E 004°54'8 8.3
2016-Sep-29 13:33N 43°17' E 005°01'57 9.0
2016-Sep-29 07:13N 42°51' E 006°10'49 6.9
2016-Sep-29 00:11N 43°06' E 007°13'17 6.5
2016-Sep-28 21:33N 43°13' E 007°35'13 6.4
2016-Sep-28 19:33N 43°18' E 007°51'19 6.4
2016-Sep-28 16:33N 43°27' E 008°14'8 6.7
2016-Sep-28 15:24N 43°31' E 008°24'18 6.4
2016-Sep-28 12:33N 43°38' E 008°46'27 6.6
2016-Sep-28 08:33N 43°49' E 009°20'28 5.6
2016-Sep-28 03:32N 44°06' E 009°51'0 0.0
2016-Sep-28 02:29N 44°06' E 009°51'0 0.0
2016-Sep-28 01:32N 44°06' E 009°51'0 0.0
2016-Sep-27 23:32N 44°06' E 009°51'0 0.0
2016-Sep-27 19:32N 44°06' E 009°51'0 0.0
2016-Sep-27 14:32N 44°06' E 009°51'0 0.0
2016-Sep-27 13:32N 44°06' E 009°51'0 0.0
2016-Sep-27 10:32N 44°06' E 009°51'27 2.7
2016-Sep-27 00:33N 43°39' E 009°47'32 8.0
2016-Sep-26 20:33N 43°08' E 009°56'8 8.2
2016-Sep-26 19:33N 43°00' E 009°59'30 7.4
2016-Sep-26 15:33N 42°34' E 010°18'16 7.9
2016-Sep-26 13:31N 42°24' E 010°35'  
2016-Sep-23 19:28N 38°41' E 015°35'17 8.8
2016-Sep-23 17:33N 38°29' E 015°50'4 4.0
2016-Sep-23 16:33N 38°27' E 015°54'0 0.0
2016-Sep-23 15:25N 38°27' E 015°54'0 0.0
2016-Sep-23 13:25N 38°27' E 015°54'0 0.0
2016-Sep-23 09:31N 38°27' E 015°54'0 0.0
2016-Sep-23 06:31N 38°27' E 015°54'0 0.0
2016-Sep-23 04:31N 38°27' E 015°54'0 0.0
2016-Sep-23 03:31N 38°27' E 015°54'0 0.0
2016-Sep-23 02:31N 38°27' E 015°54'0 0.0
2016-Sep-23 01:31N 38°27' E 015°54'0 0.0
2016-Sep-23 00:31N 38°27' E 015°54'0 0.0
2016-Sep-22 23:31N 38°27' E 015°54'0 0.0
2016-Sep-22 20:31N 38°27' E 015°54'37 4.6
2016-Sep-22 12:33N 38°22' E 015°08'82519.2
2016-Sep-20 17:34N 36°22' W 001°60'  
Track history (hours):
 
Tides and Currents Weather Stations Pressure Air Temp Water Temp Dewpoint Dewpoint Depression Visibility Wind Speed Wind Dir Waves Ship Positions

MSC Poh Lin

Last reported at 2016-Sep-30 17:33 UTC. Time now 2016-Sep-30 22:04 UTC.
Position N 39°58' E 001°10'.

Length 294 m; draft 11.3 m.

Type: Ship (hazmat cat A). MMSI: 357405000.

Date/timePositionNaut miles runAvg speedWind from/ knotsBaromVisibWave heightAir tempDewpointWater temp
2016-Sep-30 17:33N 39°58' E 001°10'1717.2
2016-Sep-30 16:33N 40°11' E 001°25'3417.1
2016-Sep-30 14:33N 40°36' E 001°55'1717.1
2016-Sep-30 13:33N 40°48' E 002°12'18616.3
2016-Sep-30 02:07N 43°08' E 004°56'17 6.5
2016-Sep-29 23:25N 43°25' E 004°50'0 0.0
2016-Sep-29 21:31N 43°25' E 004°50'0 0.0
2016-Sep-29 20:31N 43°25' E 004°50'0 0.0
2016-Sep-29 19:31N 43°25' E 004°50'0 0.0
2016-Sep-29 16:31N 43°25' E 004°50'0 0.0
2016-Sep-29 15:34N 43°25' E 004°50'4 3.5
2016-Sep-29 14:34N 43°24' E 004°54'8 8.3
2016-Sep-29 13:33N 43°17' E 005°01'57 9.0
2016-Sep-29 07:13N 42°51' E 006°10'49 6.9
2016-Sep-29 00:11N 43°06' E 007°13'17 6.5
2016-Sep-28 21:33N 43°13' E 007°35'13 6.4
2016-Sep-28 19:33N 43°18' E 007°51'19 6.4
2016-Sep-28 16:33N 43°27' E 008°14'8 6.7
2016-Sep-28 15:24N 43°31' E 008°24'18 6.4
2016-Sep-28 12:33N 43°38' E 008°46'27 6.6
2016-Sep-28 08:33N 43°49' E 009°20'28 5.6
2016-Sep-28 03:32N 44°06' E 009°51'0 0.0
2016-Sep-28 02:29N 44°06' E 009°51'0 0.0
2016-Sep-28 01:32N 44°06' E 009°51'0 0.0
2016-Sep-27 23:32N 44°06' E 009°51'0 0.0
2016-Sep-27 19:32N 44°06' E 009°51'0 0.0
2016-Sep-27 14:32N 44°06' E 009°51'0 0.0
2016-Sep-27 13:32N 44°06' E 009°51'0 0.0
2016-Sep-27 10:32N 44°06' E 009°51'27 2.7
2016-Sep-27 00:33N 43°39' E 009°47'32 8.0
2016-Sep-26 20:33N 43°08' E 009°56'8 8.2
2016-Sep-26 19:33N 43°00' E 009°59'30 7.4
2016-Sep-26 15:33N 42°34' E 010°18'16 7.9
2016-Sep-26 13:31N 42°24' E 010°35'  
2016-Sep-23 19:28N 38°41' E 015°35'17 8.8
2016-Sep-23 17:33N 38°29' E 015°50'4 4.0
2016-Sep-23 16:33N 38°27' E 015°54'0 0.0
2016-Sep-23 15:25N 38°27' E 015°54'0 0.0
2016-Sep-23 13:25N 38°27' E 015°54'0 0.0
2016-Sep-23 09:31N 38°27' E 015°54'0 0.0
2016-Sep-23 06:31N 38°27' E 015°54'0 0.0
2016-Sep-23 04:31N 38°27' E 015°54'0 0.0
2016-Sep-23 03:31N 38°27' E 015°54'0 0.0
2016-Sep-23 02:31N 38°27' E 015°54'0 0.0
2016-Sep-23 01:31N 38°27' E 015°54'0 0.0
2016-Sep-23 00:31N 38°27' E 015°54'0 0.0
2016-Sep-22 23:31N 38°27' E 015°54'0 0.0
2016-Sep-22 20:31N 38°27' E 015°54'37 4.6
2016-Sep-22 12:33N 38°22' E 015°08'82519.2
2016-Sep-20 17:34N 36°22' W 001°60'  

Dump ship's entire track history